sensor_id;sensor_type;location;lat;lon;timestamp;P1;durP1;ratioP1;P2;durP2;ratioP2
12308;SDS011;6217;48.150;17.142;2023-02-27T00:00:58;5.63;;;3.13;;
12308;SDS011;6217;48.150;17.142;2023-02-27T00:05:05;4.20;;;2.50;;
12308;SDS011;6217;48.150;17.142;2023-02-27T00:09:12;5.75;;;3.08;;
12308;SDS011;6217;48.150;17.142;2023-02-27T00:13:18;6.53;;;3.55;;
12308;SDS011;6217;48.150;17.142;2023-02-27T00:17:24;7.30;;;3.85;;
12308;SDS011;6217;48.150;17.142;2023-02-27T00:21:32;8.55;;;4.40;;
12308;SDS011;6217;48.150;17.142;2023-02-27T00:25:39;5.43;;;3.65;;
12308;SDS011;6217;48.150;17.142;2023-02-27T00:29:45;6.38;;;3.38;;
12308;SDS011;6217;48.150;17.142;2023-02-27T00:33:51;6.15;;;3.55;;
12308;SDS011;6217;48.150;17.142;2023-02-27T00:37:57;9.57;;;3.42;;
12308;SDS011;6217;48.150;17.142;2023-02-27T00:42:03;5.35;;;2.88;;
12308;SDS011;6217;48.150;17.142;2023-02-27T00:46:10;7.95;;;3.80;;
12308;SDS011;6217;48.150;17.142;2023-02-27T00:50:16;7.75;;;3.85;;
12308;SDS011;6217;48.150;17.142;2023-02-27T00:54:22;8.90;;;3.67;;
12308;SDS011;6217;48.150;17.142;2023-02-27T00:58:28;6.10;;;3.95;;
12308;SDS011;6217;48.150;17.142;2023-02-27T01:02:34;8.13;;;3.92;;
12308;SDS011;6217;48.150;17.142;2023-02-27T01:06:40;10.38;;;4.97;;
12308;SDS011;6217;48.150;17.142;2023-02-27T01:10:46;6.03;;;4.32;;
12308;SDS011;6217;48.150;17.142;2023-02-27T01:14:52;8.80;;;4.05;;
12308;SDS011;6217;48.150;17.142;2023-02-27T01:18:58;8.60;;;4.22;;
12308;SDS011;6217;48.150;17.142;2023-02-27T01:23:04;11.77;;;3.67;;
12308;SDS011;6217;48.150;17.142;2023-02-27T01:27:10;8.90;;;3.67;;
12308;SDS011;6217;48.150;17.142;2023-02-27T01:31:16;9.90;;;5.10;;
12308;SDS011;6217;48.150;17.142;2023-02-27T01:35:22;9.20;;;4.70;;
12308;SDS011;6217;48.150;17.142;2023-02-27T01:39:28;8.07;;;4.72;;
12308;SDS011;6217;48.150;17.142;2023-02-27T01:52:35;9.68;;;5.07;;
12308;SDS011;6217;48.150;17.142;2023-02-27T01:56:42;9.23;;;4.70;;
12308;SDS011;6217;48.150;17.142;2023-02-27T02:00:49;10.27;;;5.20;;
12308;SDS011;6217;48.150;17.142;2023-02-27T02:04:56;13.20;;;5.82;;
12308;SDS011;6217;48.150;17.142;2023-02-27T02:09:04;17.80;;;6.97;;
12308;SDS011;6217;48.150;17.142;2023-02-27T02:13:10;9.80;;;5.20;;
12308;SDS011;6217;48.150;17.142;2023-02-27T02:40:29;10.82;;;5.95;;
12308;SDS011;6217;48.150;17.142;2023-02-27T02:45:01;8.40;;;5.07;;
12308;SDS011;6217;48.150;17.142;2023-02-27T02:49:29;12.23;;;6.82;;
12308;SDS011;6217;48.150;17.142;2023-02-27T02:54:06;12.15;;;5.50;;
12308;SDS011;6217;48.150;17.142;2023-02-27T02:58:24;10.77;;;6.47;;
12308;SDS011;6217;48.150;17.142;2023-02-27T03:02:38;10.68;;;6.97;;
12308;SDS011;6217;48.150;17.142;2023-02-27T03:07:00;14.43;;;5.88;;
12308;SDS011;6217;48.150;17.142;2023-02-27T03:11:15;8.20;;;5.10;;
12308;SDS011;6217;48.150;17.142;2023-02-27T03:15:22;10.30;;;5.55;;
12308;SDS011;6217;48.150;17.142;2023-02-27T03:19:54;8.27;;;4.80;;
12308;SDS011;6217;48.150;17.142;2023-02-27T03:24:08;14.50;;;5.55;;
12308;SDS011;6217;48.150;17.142;2023-02-27T03:28:27;10.15;;;5.40;;
12308;SDS011;6217;48.150;17.142;2023-02-27T03:32:44;8.00;;;4.40;;
12308;SDS011;6217;48.150;17.142;2023-02-27T03:46:50;8.20;;;4.78;;
12308;SDS011;6217;48.150;17.142;2023-02-27T03:50:56;13.07;;;5.30;;
12308;SDS011;6217;48.150;17.142;2023-02-27T03:55:13;6.65;;;4.40;;
12308;SDS011;6217;48.150;17.142;2023-02-27T03:59:23;9.30;;;4.30;;
12308;SDS011;6217;48.150;17.142;2023-02-27T04:03:33;8.30;;;4.20;;
12308;SDS011;6217;48.150;17.142;2023-02-27T04:17:20;7.80;;;3.50;;
12308;SDS011;6217;48.150;17.142;2023-02-27T04:34:42;10.20;;;4.00;;
12308;SDS011;6217;48.150;17.142;2023-02-27T04:39:08;9.00;;;3.92;;
12308;SDS011;6217;48.150;17.142;2023-02-27T04:43:29;8.60;;;4.88;;
12308;SDS011;6217;48.150;17.142;2023-02-27T04:47:39;10.63;;;4.45;;
12308;SDS011;6217;48.150;17.142;2023-02-27T04:51:57;4.38;;;3.90;;
12308;SDS011;6217;48.150;17.142;2023-02-27T04:56:11;12.02;;;4.82;;
12308;SDS011;6217;48.150;17.142;2023-02-27T05:00:22;11.15;;;3.53;;
12308;SDS011;6217;48.150;17.142;2023-02-27T05:04:30;8.15;;;4.03;;
12308;SDS011;6217;48.150;17.142;2023-02-27T05:08:42;13.63;;;4.15;;
12308;SDS011;6217;48.150;17.142;2023-02-27T05:13:09;9.00;;;4.28;;
12308;SDS011;6217;48.150;17.142;2023-02-27T05:17:21;6.55;;;3.05;;
12308;SDS011;6217;48.150;17.142;2023-02-27T05:21:56;9.52;;;3.47;;
12308;SDS011;6217;48.150;17.142;2023-02-27T05:26:30;9.13;;;2.80;;
12308;SDS011;6217;48.150;17.142;2023-02-27T05:31:02;8.27;;;3.17;;
12308;SDS011;6217;48.150;17.142;2023-02-27T05:35:19;3.80;;;2.70;;
12308;SDS011;6217;48.150;17.142;2023-02-27T05:39:31;9.68;;;2.90;;
12308;SDS011;6217;48.150;17.142;2023-02-27T05:43:43;6.20;;;2.50;;
12308;SDS011;6217;48.150;17.142;2023-02-27T05:47:57;10.35;;;3.70;;
12308;SDS011;6217;48.150;17.142;2023-02-27T05:52:10;7.68;;;2.92;;
12308;SDS011;6217;48.150;17.142;2023-02-27T05:56:20;7.53;;;2.50;;
12308;SDS011;6217;48.150;17.142;2023-02-27T06:04:47;5.78;;;2.33;;
12308;SDS011;6217;48.150;17.142;2023-02-27T06:08:53;5.70;;;2.63;;
12308;SDS011;6217;48.150;17.142;2023-02-27T06:12:59;7.38;;;2.70;;
12308;SDS011;6217;48.150;17.142;2023-02-27T06:17:05;9.93;;;2.78;;
12308;SDS011;6217;48.150;17.142;2023-02-27T06:21:11;3.40;;;2.67;;
12308;SDS011;6217;48.150;17.142;2023-02-27T06:25:17;6.22;;;2.38;;
12308;SDS011;6217;48.150;17.142;2023-02-27T06:29:23;5.35;;;2.22;;
12308;SDS011;6217;48.150;17.142;2023-02-27T06:33:29;6.03;;;2.75;;
12308;SDS011;6217;48.150;17.142;2023-02-27T06:37:35;6.68;;;2.38;;
12308;SDS011;6217;48.150;17.142;2023-02-27T06:41:41;8.35;;;3.05;;
12308;SDS011;6217;48.150;17.142;2023-02-27T06:45:48;7.43;;;3.83;;
12308;SDS011;6217;48.150;17.142;2023-02-27T06:49:58;5.22;;;2.75;;
12308;SDS011;6217;48.150;17.142;2023-02-27T06:54:04;8.57;;;4.07;;
12308;SDS011;6217;48.150;17.142;2023-02-27T06:58:10;7.90;;;3.42;;
12308;SDS011;6217;48.150;17.142;2023-02-27T07:02:16;7.03;;;1.95;;
12308;SDS011;6217;48.150;17.142;2023-02-27T07:06:22;5.03;;;2.38;;
12308;SDS011;6217;48.150;17.142;2023-02-27T07:10:28;4.00;;;2.20;;
12308;SDS011;6217;48.150;17.142;2023-02-27T07:14:35;6.00;;;2.28;;
12308;SDS011;6217;48.150;17.142;2023-02-27T07:18:41;5.38;;;2.08;;
12308;SDS011;6217;48.150;17.142;2023-02-27T07:22:47;6.22;;;1.98;;
12308;SDS011;6217;48.150;17.142;2023-02-27T07:26:53;6.82;;;2.42;;
12308;SDS011;6217;48.150;17.142;2023-02-27T07:30:59;9.82;;;2.35;;
12308;SDS011;6217;48.150;17.142;2023-02-27T07:35:06;8.23;;;2.22;;
12308;SDS011;6217;48.150;17.142;2023-02-27T07:39:13;7.00;;;2.05;;
12308;SDS011;6217;48.150;17.142;2023-02-27T07:43:19;4.32;;;2.42;;
12308;SDS011;6217;48.150;17.142;2023-02-27T07:47:26;9.13;;;2.53;;
12308;SDS011;6217;48.150;17.142;2023-02-27T07:51:34;6.00;;;2.95;;
12308;SDS011;6217;48.150;17.142;2023-02-27T07:55:40;5.55;;;2.58;;
12308;SDS011;6217;48.150;17.142;2023-02-27T07:59:46;7.72;;;3.58;;
12308;SDS011;6217;48.150;17.142;2023-02-27T08:03:52;3.83;;;2.40;;
12308;SDS011;6217;48.150;17.142;2023-02-27T08:07:59;3.97;;;1.95;;
12308;SDS011;6217;48.150;17.142;2023-02-27T08:12:05;3.03;;;2.17;;
12308;SDS011;6217;48.150;17.142;2023-02-27T08:16:11;3.78;;;1.77;;
12308;SDS011;6217;48.150;17.142;2023-02-27T08:20:17;4.13;;;1.90;;
12308;SDS011;6217;48.150;17.142;2023-02-27T08:24:26;5.07;;;2.03;;
12308;SDS011;6217;48.150;17.142;2023-02-27T08:28:32;3.13;;;1.88;;
12308;SDS011;6217;48.150;17.142;2023-02-27T08:32:39;6.13;;;3.45;;
12308;SDS011;6217;48.150;17.142;2023-02-27T08:36:45;3.05;;;2.13;;
12308;SDS011;6217;48.150;17.142;2023-02-27T08:40:51;4.53;;;2.25;;
12308;SDS011;6217;48.150;17.142;2023-02-27T08:44:57;5.03;;;2.03;;
12308;SDS011;6217;48.150;17.142;2023-02-27T08:49:03;5.13;;;2.22;;
12308;SDS011;6217;48.150;17.142;2023-02-27T08:53:09;4.10;;;2.22;;
12308;SDS011;6217;48.150;17.142;2023-02-27T08:57:16;2.72;;;1.65;;
12308;SDS011;6217;48.150;17.142;2023-02-27T09:01:22;3.47;;;2.00;;
12308;SDS011;6217;48.150;17.142;2023-02-27T09:05:31;3.90;;;2.40;;
12308;SDS011;6217;48.150;17.142;2023-02-27T09:09:39;5.13;;;2.28;;
12308;SDS011;6217;48.150;17.142;2023-02-27T09:13:45;5.18;;;2.00;;
12308;SDS011;6217;48.150;17.142;2023-02-27T09:17:51;4.70;;;1.80;;
12308;SDS011;6217;48.150;17.142;2023-02-27T09:22:00;6.63;;;2.03;;
12308;SDS011;6217;48.150;17.142;2023-02-27T09:26:06;6.07;;;2.78;;
12308;SDS011;6217;48.150;17.142;2023-02-27T09:30:13;3.72;;;2.58;;
12308;SDS011;6217;48.150;17.142;2023-02-27T09:34:20;5.95;;;1.80;;
12308;SDS011;6217;48.150;17.142;2023-02-27T09:38:25;5.40;;;2.15;;
12308;SDS011;6217;48.150;17.142;2023-02-27T09:42:39;3.42;;;1.70;;
12308;SDS011;6217;48.150;17.142;2023-02-27T09:46:51;4.95;;;2.03;;
12308;SDS011;6217;48.150;17.142;2023-02-27T09:50:58;3.65;;;1.80;;
12308;SDS011;6217;48.150;17.142;2023-02-27T09:55:09;3.65;;;1.60;;
12308;SDS011;6217;48.150;17.142;2023-02-27T09:59:27;2.70;;;1.58;;
12308;SDS011;6217;48.150;17.142;2023-02-27T10:03:51;4.43;;;1.80;;
12308;SDS011;6217;48.150;17.142;2023-02-27T10:17:16;2.95;;;2.33;;
12308;SDS011;6217;48.150;17.142;2023-02-27T10:21:32;4.82;;;2.65;;
12308;SDS011;6217;48.150;17.142;2023-02-27T10:25:53;4.30;;;1.90;;
12308;SDS011;6217;48.150;17.142;2023-02-27T10:30:15;3.83;;;1.67;;
12308;SDS011;6217;48.150;17.142;2023-02-27T10:34:29;5.55;;;1.80;;
12308;SDS011;6217;48.150;17.142;2023-02-27T10:38:41;3.95;;;1.65;;
12308;SDS011;6217;48.150;17.142;2023-02-27T10:42:52;3.60;;;1.95;;
12308;SDS011;6217;48.150;17.142;2023-02-27T10:47:00;3.03;;;2.00;;
12308;SDS011;6217;48.150;17.142;2023-02-27T10:55:31;3.78;;;1.40;;
12308;SDS011;6217;48.150;17.142;2023-02-27T10:59:40;3.08;;;1.60;;
12308;SDS011;6217;48.150;17.142;2023-02-27T11:03:46;3.53;;;1.55;;
12308;SDS011;6217;48.150;17.142;2023-02-27T11:08:20;2.88;;;1.83;;
12308;SDS011;6217;48.150;17.142;2023-02-27T11:12:34;5.90;;;2.65;;
12308;SDS011;6217;48.150;17.142;2023-02-27T11:16:44;4.68;;;1.60;;
12308;SDS011;6217;48.150;17.142;2023-02-27T11:25:31;4.03;;;2.00;;
12308;SDS011;6217;48.150;17.142;2023-02-27T11:29:38;1.30;;;1.20;;
12308;SDS011;6217;48.150;17.142;2023-02-27T11:34:02;3.00;;;1.50;;
12308;SDS011;6217;48.150;17.142;2023-02-27T11:38:16;5.10;;;1.50;;
12308;SDS011;6217;48.150;17.142;2023-02-27T11:42:32;4.43;;;1.80;;
12308;SDS011;6217;48.150;17.142;2023-02-27T11:46:41;2.53;;;1.80;;
12308;SDS011;6217;48.150;17.142;2023-02-27T11:55:12;4.30;;;1.70;;
12308;SDS011;6217;48.150;17.142;2023-02-27T12:03:34;3.33;;;1.50;;
12308;SDS011;6217;48.150;17.142;2023-02-27T12:17:08;3.55;;;1.48;;
12308;SDS011;6217;48.150;17.142;2023-02-27T12:22:11;2.30;;;1.08;;
12308;SDS011;6217;48.150;17.142;2023-02-27T12:26:30;1.75;;;1.40;;
12308;SDS011;6217;48.150;17.142;2023-02-27T12:30:44;2.30;;;1.27;;
12308;SDS011;6217;48.150;17.142;2023-02-27T12:35:10;2.40;;;1.77;;
12308;SDS011;6217;48.150;17.142;2023-02-27T12:39:23;2.42;;;1.42;;
12308;SDS011;6217;48.150;17.142;2023-02-27T12:43:33;2.70;;;1.30;;
12308;SDS011;6217;48.150;17.142;2023-02-27T13:01:01;4.03;;;1.83;;
12308;SDS011;6217;48.150;17.142;2023-02-27T13:09:58;5.47;;;2.05;;
12308;SDS011;6217;48.150;17.142;2023-02-27T13:18:42;2.33;;;1.80;;
12308;SDS011;6217;48.150;17.142;2023-02-27T13:23:10;1.80;;;1.50;;
12308;SDS011;6217;48.150;17.142;2023-02-27T13:27:27;3.03;;;1.75;;
12308;SDS011;6217;48.150;17.142;2023-02-27T13:36:02;4.97;;;2.47;;
12308;SDS011;6217;48.150;17.142;2023-02-27T13:40:26;5.22;;;1.70;;
12308;SDS011;6217;48.150;17.142;2023-02-27T13:48:41;4.20;;;1.85;;
12308;SDS011;6217;48.150;17.142;2023-02-27T13:52:50;4.13;;;2.00;;
12308;SDS011;6217;48.150;17.142;2023-02-27T14:01:36;3.38;;;1.98;;
12308;SDS011;6217;48.150;17.142;2023-02-27T14:05:44;3.13;;;1.70;;
12308;SDS011;6217;48.150;17.142;2023-02-27T14:10:02;3.95;;;1.83;;
12308;SDS011;6217;48.150;17.142;2023-02-27T14:14:33;3.15;;;1.60;;
12308;SDS011;6217;48.150;17.142;2023-02-27T14:18:55;5.30;;;2.60;;
12308;SDS011;6217;48.150;17.142;2023-02-27T14:27:30;6.05;;;1.95;;
12308;SDS011;6217;48.150;17.142;2023-02-27T14:31:54;2.63;;;1.70;;
12308;SDS011;6217;48.150;17.142;2023-02-27T14:36:03;4.85;;;1.58;;
12308;SDS011;6217;48.150;17.142;2023-02-27T14:40:20;2.93;;;1.60;;
12308;SDS011;6217;48.150;17.142;2023-02-27T14:44:41;5.60;;;1.77;;
12308;SDS011;6217;48.150;17.142;2023-02-27T14:48:54;3.08;;;1.80;;
12308;SDS011;6217;48.150;17.142;2023-02-27T14:53:20;4.13;;;1.73;;
12308;SDS011;6217;48.150;17.142;2023-02-27T14:57:31;4.15;;;2.38;;
12308;SDS011;6217;48.150;17.142;2023-02-27T15:01:37;3.95;;;1.75;;
12308;SDS011;6217;48.150;17.142;2023-02-27T15:05:43;2.95;;;1.75;;
12308;SDS011;6217;48.150;17.142;2023-02-27T15:10:01;5.95;;;1.85;;
12308;SDS011;6217;48.150;17.142;2023-02-27T15:14:17;3.85;;;1.75;;
12308;SDS011;6217;48.150;17.142;2023-02-27T15:18:27;5.70;;;1.98;;
12308;SDS011;6217;48.150;17.142;2023-02-27T15:22:35;5.72;;;1.80;;
12308;SDS011;6217;48.150;17.142;2023-02-27T15:26:42;2.38;;;2.00;;
12308;SDS011;6217;48.150;17.142;2023-02-27T15:30:51;4.60;;;1.50;;
12308;SDS011;6217;48.150;17.142;2023-02-27T15:35:01;4.97;;;2.58;;
12308;SDS011;6217;48.150;17.142;2023-02-27T15:39:21;3.17;;;1.90;;
12308;SDS011;6217;48.150;17.142;2023-02-27T15:43:30;1.90;;;1.40;;
12308;SDS011;6217;48.150;17.142;2023-02-27T15:47:36;5.25;;;2.10;;
12308;SDS011;6217;48.150;17.142;2023-02-27T15:51:47;2.17;;;1.92;;
12308;SDS011;6217;48.150;17.142;2023-02-27T15:56:03;2.00;;;1.73;;
12308;SDS011;6217;48.150;17.142;2023-02-27T16:00:15;5.07;;;1.70;;
12308;SDS011;6217;48.150;17.142;2023-02-27T16:04:23;3.95;;;2.38;;
12308;SDS011;6217;48.150;17.142;2023-02-27T16:08:30;5.20;;;2.45;;
12308;SDS011;6217;48.150;17.142;2023-02-27T16:12:36;5.63;;;2.72;;
12308;SDS011;6217;48.150;17.142;2023-02-27T16:16:51;2.25;;;1.80;;
12308;SDS011;6217;48.150;17.142;2023-02-27T16:21:10;4.07;;;1.70;;
12308;SDS011;6217;48.150;17.142;2023-02-27T16:25:24;3.88;;;1.60;;
12308;SDS011;6217;48.150;17.142;2023-02-27T16:29:38;3.33;;;1.67;;
12308;SDS011;6217;48.150;17.142;2023-02-27T16:33:48;3.25;;;1.80;;
12308;SDS011;6217;48.150;17.142;2023-02-27T16:37:58;7.72;;;1.63;;
12308;SDS011;6217;48.150;17.142;2023-02-27T16:42:07;4.53;;;1.60;;
12308;SDS011;6217;48.150;17.142;2023-02-27T16:46:15;6.00;;;1.80;;
12308;SDS011;6217;48.150;17.142;2023-02-27T16:54:49;6.82;;;3.72;;
12308;SDS011;6217;48.150;17.142;2023-02-27T16:58:55;4.15;;;2.03;;
12308;SDS011;6217;48.150;17.142;2023-02-27T17:03:01;4.38;;;1.90;;
12308;SDS011;6217;48.150;17.142;2023-02-27T17:07:09;3.33;;;2.03;;
12308;SDS011;6217;48.150;17.142;2023-02-27T17:11:20;4.43;;;1.95;;
12308;SDS011;6217;48.150;17.142;2023-02-27T17:15:26;4.75;;;1.98;;
12308;SDS011;6217;48.150;17.142;2023-02-27T17:19:33;3.53;;;1.85;;
12308;SDS011;6217;48.150;17.142;2023-02-27T17:23:39;7.25;;;2.30;;
12308;SDS011;6217;48.150;17.142;2023-02-27T17:27:45;5.90;;;2.50;;
12308;SDS011;6217;48.150;17.142;2023-02-27T17:31:51;2.53;;;2.10;;
12308;SDS011;6217;48.150;17.142;2023-02-27T17:36:01;6.00;;;2.97;;
12308;SDS011;6217;48.150;17.142;2023-02-27T17:40:13;4.47;;;2.83;;
12308;SDS011;6217;48.150;17.142;2023-02-27T17:44:18;5.97;;;3.45;;
12308;SDS011;6217;48.150;17.142;2023-02-27T17:48:24;5.80;;;3.63;;
12308;SDS011;6217;48.150;17.142;2023-02-27T17:52:30;5.53;;;4.38;;
12308;SDS011;6217;48.150;17.142;2023-02-27T17:56:40;9.40;;;4.32;;
12308;SDS011;6217;48.150;17.142;2023-02-27T18:00:47;9.07;;;3.28;;
12308;SDS011;6217;48.150;17.142;2023-02-27T18:04:53;12.75;;;3.50;;
12308;SDS011;6217;48.150;17.142;2023-02-27T18:08:59;4.65;;;2.45;;
12308;SDS011;6217;48.150;17.142;2023-02-27T18:13:05;6.30;;;2.83;;
12308;SDS011;6217;48.150;17.142;2023-02-27T18:17:11;3.55;;;2.85;;
12308;SDS011;6217;48.150;17.142;2023-02-27T18:21:18;5.57;;;2.90;;
12308;SDS011;6217;48.150;17.142;2023-02-27T18:25:25;2.55;;;2.30;;
12308;SDS011;6217;48.150;17.142;2023-02-27T18:29:32;6.22;;;2.72;;
12308;SDS011;6217;48.150;17.142;2023-02-27T18:33:38;5.35;;;1.90;;
12308;SDS011;6217;48.150;17.142;2023-02-27T18:37:43;3.17;;;2.10;;
12308;SDS011;6217;48.150;17.142;2023-02-27T18:41:49;4.03;;;2.05;;
12308;SDS011;6217;48.150;17.142;2023-02-27T18:45:56;9.75;;;2.30;;
12308;SDS011;6217;48.150;17.142;2023-02-27T18:50:02;5.22;;;2.40;;
12308;SDS011;6217;48.150;17.142;2023-02-27T18:54:10;2.78;;;1.60;;
12308;SDS011;6217;48.150;17.142;2023-02-27T18:58:18;6.13;;;2.30;;
12308;SDS011;6217;48.150;17.142;2023-02-27T19:02:27;4.22;;;2.38;;
12308;SDS011;6217;48.150;17.142;2023-02-27T19:06:37;3.67;;;2.25;;
12308;SDS011;6217;48.150;17.142;2023-02-27T19:10:45;4.28;;;2.15;;
12308;SDS011;6217;48.150;17.142;2023-02-27T19:14:51;5.35;;;2.67;;
12308;SDS011;6217;48.150;17.142;2023-02-27T19:18:57;5.28;;;2.50;;
12308;SDS011;6217;48.150;17.142;2023-02-27T19:23:05;3.70;;;2.03;;
12308;SDS011;6217;48.150;17.142;2023-02-27T19:27:11;4.30;;;2.30;;
12308;SDS011;6217;48.150;17.142;2023-02-27T19:31:17;3.65;;;2.50;;
12308;SDS011;6217;48.150;17.142;2023-02-27T19:35:23;6.82;;;2.47;;
12308;SDS011;6217;48.150;17.142;2023-02-27T19:39:29;3.75;;;1.90;;
12308;SDS011;6217;48.150;17.142;2023-02-27T19:43:36;4.00;;;2.35;;
12308;SDS011;6217;48.150;17.142;2023-02-27T19:47:44;3.92;;;2.25;;
12308;SDS011;6217;48.150;17.142;2023-02-27T19:51:50;3.40;;;1.77;;
12308;SDS011;6217;48.150;17.142;2023-02-27T19:55:57;4.05;;;2.25;;
12308;SDS011;6217;48.150;17.142;2023-02-27T20:00:08;6.57;;;1.90;;
12308;SDS011;6217;48.150;17.142;2023-02-27T20:04:20;3.67;;;1.92;;
12308;SDS011;6217;48.150;17.142;2023-02-27T20:08:26;4.43;;;1.90;;
12308;SDS011;6217;48.150;17.142;2023-02-27T20:12:33;4.40;;;2.08;;
12308;SDS011;6217;48.150;17.142;2023-02-27T20:16:40;3.72;;;1.65;;
12308;SDS011;6217;48.150;17.142;2023-02-27T20:21:07;2.97;;;1.92;;
12308;SDS011;6217;48.150;17.142;2023-02-27T20:25:16;2.65;;;1.50;;
12308;SDS011;6217;48.150;17.142;2023-02-27T20:29:23;2.78;;;1.50;;
12308;SDS011;6217;48.150;17.142;2023-02-27T20:33:32;4.45;;;1.70;;
12308;SDS011;6217;48.150;17.142;2023-02-27T20:37:41;5.13;;;2.05;;
12308;SDS011;6217;48.150;17.142;2023-02-27T20:41:47;2.40;;;1.70;;
12308;SDS011;6217;48.150;17.142;2023-02-27T20:45:55;4.18;;;2.13;;
12308;SDS011;6217;48.150;17.142;2023-02-27T20:50:01;4.60;;;1.77;;
12308;SDS011;6217;48.150;17.142;2023-02-27T20:54:08;2.10;;;1.40;;
12308;SDS011;6217;48.150;17.142;2023-02-27T20:58:18;5.22;;;1.90;;
12308;SDS011;6217;48.150;17.142;2023-02-27T21:02:25;3.10;;;1.98;;
12308;SDS011;6217;48.150;17.142;2023-02-27T21:06:32;3.53;;;1.80;;
12308;SDS011;6217;48.150;17.142;2023-02-27T21:10:39;7.40;;;2.45;;
12308;SDS011;6217;48.150;17.142;2023-02-27T21:14:45;2.58;;;1.58;;
12308;SDS011;6217;48.150;17.142;2023-02-27T21:18:53;2.28;;;1.50;;
12308;SDS011;6217;48.150;17.142;2023-02-27T21:23:00;4.95;;;1.80;;
12308;SDS011;6217;48.150;17.142;2023-02-27T21:27:06;2.50;;;1.50;;
12308;SDS011;6217;48.150;17.142;2023-02-27T21:31:13;2.67;;;2.08;;
12308;SDS011;6217;48.150;17.142;2023-02-27T21:35:20;3.10;;;1.70;;
12308;SDS011;6217;48.150;17.142;2023-02-27T21:39:26;2.25;;;1.90;;
12308;SDS011;6217;48.150;17.142;2023-02-27T21:43:32;3.85;;;1.73;;
12308;SDS011;6217;48.150;17.142;2023-02-27T21:47:39;2.70;;;2.17;;
12308;SDS011;6217;48.150;17.142;2023-02-27T21:51:46;2.85;;;1.85;;
12308;SDS011;6217;48.150;17.142;2023-02-27T21:55:52;4.18;;;2.40;;
12308;SDS011;6217;48.150;17.142;2023-02-27T22:00:01;4.45;;;3.60;;
12308;SDS011;6217;48.150;17.142;2023-02-27T22:04:15;4.45;;;1.90;;
12308;SDS011;6217;48.150;17.142;2023-02-27T22:08:23;4.68;;;2.00;;
12308;SDS011;6217;48.150;17.142;2023-02-27T22:12:29;5.88;;;2.33;;
12308;SDS011;6217;48.150;17.142;2023-02-27T22:16:35;4.97;;;2.55;;
12308;SDS011;6217;48.150;17.142;2023-02-27T22:20:42;4.13;;;2.65;;
12308;SDS011;6217;48.150;17.142;2023-02-27T22:24:51;3.25;;;2.10;;
12308;SDS011;6217;48.150;17.142;2023-02-27T22:29:00;4.53;;;3.08;;
12308;SDS011;6217;48.150;17.142;2023-02-27T22:33:08;4.75;;;2.22;;
12308;SDS011;6217;48.150;17.142;2023-02-27T22:37:14;5.40;;;2.38;;
12308;SDS011;6217;48.150;17.142;2023-02-27T22:41:21;5.88;;;2.25;;
12308;SDS011;6217;48.150;17.142;2023-02-27T22:45:30;2.40;;;1.80;;
12308;SDS011;6217;48.150;17.142;2023-02-27T22:49:35;4.60;;;2.53;;
12308;SDS011;6217;48.150;17.142;2023-02-27T22:53:43;2.70;;;1.90;;
12308;SDS011;6217;48.150;17.142;2023-02-27T22:57:50;4.47;;;2.30;;
12308;SDS011;6217;48.150;17.142;2023-02-27T23:01:56;3.45;;;2.03;;
12308;SDS011;6217;48.150;17.142;2023-02-27T23:06:03;3.13;;;2.40;;
12308;SDS011;6217;48.150;17.142;2023-02-27T23:10:10;4.47;;;2.28;;
12308;SDS011;6217;48.150;17.142;2023-02-27T23:14:16;7.00;;;2.85;;
12308;SDS011;6217;48.150;17.142;2023-02-27T23:18:23;5.05;;;2.33;;
12308;SDS011;6217;48.150;17.142;2023-02-27T23:22:29;3.38;;;2.22;;
12308;SDS011;6217;48.150;17.142;2023-02-27T23:26:38;4.88;;;2.08;;
12308;SDS011;6217;48.150;17.142;2023-02-27T23:30:47;6.13;;;2.47;;
12308;SDS011;6217;48.150;17.142;2023-02-27T23:34:54;5.25;;;2.55;;
12308;SDS011;6217;48.150;17.142;2023-02-27T23:39:00;4.82;;;2.55;;
12308;SDS011;6217;48.150;17.142;2023-02-27T23:43:09;3.45;;;2.17;;
12308;SDS011;6217;48.150;17.142;2023-02-27T23:47:15;8.45;;;3.85;;
12308;SDS011;6217;48.150;17.142;2023-02-27T23:51:40;5.10;;;2.58;;
12308;SDS011;6217;48.150;17.142;2023-02-27T23:55:46;4.07;;;2.50;;
12308;SDS011;6217;48.150;17.142;2023-02-27T23:59:51;6.35;;;2.80;;
